Time;durP1;ratioP1;P1;durP2;ratioP2;P2;SDS_P1;SDS_P2;PMS_P1;PMS_P2;Temp;Humidity;BMP_temperature;BMP_pressure;BME280_temperature;BME280_humidity;BME280_pressure;Samples;Min_cycle;Max_cycle;Signal;HPM_P1;HPM_P2
2022/08/13 00:03:32;;;;;;;1.38;0.40;;;20.40;82.10;;;;;;10464196;28;20491;-87
2022/08/13 00:08:56;;;;;;;0.28;0.28;;;19.80;82.30;;;;;;10461916;28;20052;-87
2022/08/13 00:14:00;;;;;;;4.97;0.40;;;19.90;83.00;;;;;;10462495;28;20045;-87
2022/08/13 00:19:02;;;;;;;2.58;0.43;;;19.90;82.70;;;;;;10462879;28;20079;-88
2022/08/13 00:24:05;;;;;;;0.50;0.40;;;19.80;83.00;;;;;;10457051;28;20045;-87
2022/08/13 00:29:28;;;;;;;0.40;0.40;;;19.70;84.40;;;;;;10463808;28;20048;-87
2022/08/13 00:34:32;;;;;;;2.92;0.40;;;19.30;84.50;;;;;;10467169;28;20549;-87
2022/08/13 00:39:33;;;;;;;1.10;0.30;;;19.50;85.20;;;;;;10443935;28;20160;-88
2022/08/13 00:44:55;;;;;;;1.20;0.30;;;19.50;85.30;;;;;;10442934;28;20059;-87
2022/08/13 00:49:58;;;;;;;0.40;0.20;;;19.50;85.40;;;;;;10453502;28;20048;-87
2022/08/13 00:55:07;;;;;;;2.95;0.40;;;19.40;85.50;;;;;;10462285;28;20064;-87
2022/08/13 01:00:15;;;;;;;4.68;1.48;;;19.40;86.70;;;;;;10438298;28;20060;-87
2022/08/13 01:05:19;;;;;;;1.20;0.50;;;19.30;87.60;;;;;;10458843;28;20114;-87
2022/08/13 01:10:21;;;;;;;1.90;0.40;;;19.20;87.80;;;;;;10452176;28;20044;-87
2022/08/13 01:15:23;;;;;;;3.30;0.40;;;19.20;88.40;;;;;;10476635;28;20049;-87
2022/08/13 01:20:49;;;;;;;0.70;0.40;;;19.50;89.20;;;;;;10469203;28;20020;-86
2022/08/13 01:25:59;;;;;;;0.98;0.30;;;18.80;89.70;;;;;;10479778;28;20040;-87
2022/08/13 01:31:14;;;;;;;2.47;0.40;;;19.20;90.30;;;;;;10458382;28;20049;-87
2022/08/13 01:36:20;;;;;;;3.33;0.60;;;18.90;90.30;;;;;;10486758;28;20048;-87
2022/08/13 01:41:42;;;;;;;2.17;0.40;;;18.90;90.90;;;;;;10463286;28;20112;-86
2022/08/13 01:52:16;;;;;;;1.48;0.60;;;18.40;91.70;;;;;;10485907;28;20032;-87
2022/08/13 01:57:19;;;;;;;0.57;0.30;;;18.60;92.00;;;;;;10481617;28;20048;-87
2022/08/13 02:02:23;;;;;;;0.60;0.47;;;18.50;92.70;;;;;;10453468;28;20075;-86
2022/08/13 02:07:44;;;;;;;0.47;0.45;;;18.40;92.50;;;;;;10478113;28;20053;-88
2022/08/13 02:13:12;;;;;;;1.25;0.57;;;18.60;92.90;;;;;;10460850;28;20057;-86
2022/08/13 02:18:20;;;;;;;0.60;0.40;;;18.40;93.30;;;;;;10452941;28;20060;-87
2022/08/13 02:23:25;;;;;;;0.57;0.32;;;18.40;93.50;;;;;;10446909;28;20076;-87
2022/08/13 02:28:49;;;;;;;1.02;0.47;;;18.20;93.70;;;;;;10465379;28;20052;-87
2022/08/13 02:33:52;;;;;;;2.35;0.50;;;18.40;94.30;;;;;;10470467;28;20055;-87
2022/08/13 02:39:00;;;;;;;0.70;0.40;;;18.20;94.70;;;;;;10452440;28;20483;-87
2022/08/13 02:44:03;;;;;;;2.03;0.43;;;18.70;95.20;;;;;;10454738;28;20112;-86
2022/08/13 02:49:17;;;;;;;1.02;0.50;;;18.30;95.70;;;;;;10474785;28;20040;-87
2022/08/13 02:54:20;;;;;;;1.20;0.30;;;18.00;95.80;;;;;;10477336;28;20089;-87
2022/08/13 02:59:26;;;;;;;0.70;0.40;;;18.20;95.90;;;;;;10471319;28;20093;-87
2022/08/13 03:04:49;;;;;;;3.00;0.40;;;17.70;96.20;;;;;;10443357;28;20066;-87
2022/08/13 03:09:51;;;;;;;0.68;0.47;;;17.70;96.70;;;;;;10446532;28;20164;-87
2022/08/13 03:14:59;;;;;;;0.40;0.32;;;17.80;97.10;;;;;;10438412;28;20048;-87
2022/08/13 03:20:01;;;;;;;1.35;0.40;;;17.80;97.40;;;;;;10456901;28;20051;-87
2022/08/13 03:25:10;;;;;;;0.70;0.40;;;17.70;97.80;;;;;;10464485;28;20508;-87
2022/08/13 03:30:17;;;;;;;1.48;0.40;;;17.50;97.90;;;;;;10445209;28;20098;-87
2022/08/13 03:35:25;;;;;;;0.77;0.50;;;17.50;98.30;;;;;;10464863;28;20099;-87
2022/08/13 03:41:08;;;;;;;2.03;0.30;;;17.30;98.70;;;;;;10454555;28;20051;-86
2022/08/13 03:46:13;;;;;;;1.38;0.50;;;17.40;99.00;;;;;;10460018;28;20044;-87
2022/08/13 03:51:23;;;;;;;2.72;0.40;;;17.30;99.40;;;;;;10466523;28;20040;-87
2022/08/13 03:56:36;;;;;;;1.10;0.40;;;17.70;99.10;;;;;;10454697;28;20131;-87
2022/08/13 04:01:41;;;;;;;1.38;0.50;;;17.00;99.10;;;;;;10450611;28;20045;-87
2022/08/13 04:06:57;;;;;;;0.73;0.40;;;17.20;99.70;;;;;;10473916;28;20048;-87
2022/08/13 04:11:59;;;;;;;0.47;0.40;;;17.20;99.90;;;;;;10477698;28;20055;-86
2022/08/13 04:17:10;;;;;;;1.85;0.80;;;16.90;99.90;;;;;;10452476;28;20074;-86
2022/08/13 04:22:15;;;;;;;2.45;0.70;;;17.10;99.90;;;;;;10460549;28;20036;-87
2022/08/13 04:27:16;;;;;;;2.67;0.50;;;16.90;99.90;;;;;;10434231;28;20064;-85
2022/08/13 04:32:23;;;;;;;0.90;0.50;;;16.70;99.90;;;;;;10436134;28;20451;-87
2022/08/13 04:37:27;;;;;;;1.48;0.60;;;16.70;99.90;;;;;;10454695;28;20490;-86
2022/08/13 04:42:53;;;;;;;1.17;0.40;;;16.90;99.90;;;;;;10466371;28;20460;-86
2022/08/13 04:47:58;;;;;;;4.00;0.40;;;16.90;99.90;;;;;;10469652;28;20064;-86
2022/08/13 04:53:22;;;;;;;0.70;0.40;;;17.30;99.90;;;;;;10468646;28;20053;-86
2022/08/13 04:58:32;;;;;;;1.00;0.40;;;16.80;99.90;;;;;;10454283;28;20040;-86
2022/08/13 05:03:41;;;;;;;0.55;0.45;;;16.90;99.90;;;;;;10478402;28;20040;-86
2022/08/13 05:08:48;;;;;;;0.60;0.50;;;16.90;99.90;;;;;;10469651;28;20051;-87
2022/08/13 05:13:56;;;;;;;3.05;0.50;;;16.80;99.90;;;;;;10474752;28;20143;-87
2022/08/13 05:18:58;;;;;;;1.85;0.50;;;16.80;99.90;;;;;;10460279;28;20495;-86
2022/08/13 05:24:00;;;;;;;2.65;0.40;;;16.90;99.90;;;;;;10455710;28;20068;-86
2022/08/13 05:29:22;;;;;;;1.80;0.50;;;16.90;99.90;;;;;;10451508;28;20050;-87
2022/08/13 05:34:25;;;;;;;1.75;0.40;;;17.30;99.90;;;;;;10477935;28;20091;-86
2022/08/13 05:39:27;;;;;;;2.22;0.40;;;17.60;99.90;;;;;;10467766;28;20487;-86
2022/08/13 05:44:35;;;;;;;1.35;0.57;;;17.40;99.90;;;;;;10440124;28;20064;-86
2022/08/13 05:49:39;;;;;;;0.88;0.65;;;17.40;99.90;;;;;;10452374;28;20065;-86
2022/08/13 05:54:43;;;;;;;1.08;0.65;;;18.00;99.90;;;;;;10435163;28;20380;-86
2022/08/13 06:05:28;;;;;;;1.58;0.60;;;18.20;99.90;;;;;;10469680;28;20036;-86
2022/08/13 06:10:48;;;;;;;2.63;0.40;;;18.40;99.90;;;;;;10461082;28;20049;-87
2022/08/13 06:16:00;;;;;;;5.53;0.50;;;19.80;99.90;;;;;;10452780;28;20041;-86
2022/08/13 06:21:18;;;;;;;0.63;0.30;;;18.80;99.90;;;;;;10454578;28;20118;-87
2022/08/13 06:26:40;;;;;;;1.48;0.40;;;19.10;99.90;;;;;;10457046;28;20044;-86
2022/08/13 06:31:49;;;;;;;1.95;0.38;;;19.20;99.90;;;;;;10451143;28;20044;-87
2022/08/13 06:36:51;;;;;;;0.95;0.60;;;19.20;99.90;;;;;;10433028;28;20064;-87
2022/08/13 06:41:59;;;;;;;1.95;0.40;;;19.80;99.90;;;;;;10445416;28;20044;-87
2022/08/13 06:47:05;;;;;;;3.30;0.30;;;19.90;99.70;;;;;;10440630;28;20041;-86
2022/08/13 06:52:07;;;;;;;0.75;0.43;;;20.30;99.20;;;;;;10434970;28;20127;-87
2022/08/13 06:57:09;;;;;;;0.73;0.30;;;20.60;98.00;;;;;;10439981;28;20051;-87
2022/08/13 07:02:24;;;;;;;1.85;0.30;;;20.90;97.30;;;;;;10450508;28;20071;-86
2022/08/13 07:07:27;;;;;;;2.17;0.40;;;21.50;95.80;;;;;;10426093;28;20119;-87
2022/08/13 07:12:34;;;;;;;0.95;0.40;;;21.70;95.10;;;;;;10447520;28;20491;-87
2022/08/13 07:17:35;;;;;;;1.38;0.47;;;22.20;93.90;;;;;;10457601;28;20106;-86
2022/08/13 07:22:45;;;;;;;2.15;0.40;;;22.30;93.60;;;;;;10429413;28;20041;-86
2022/08/13 07:28:08;;;;;;;2.53;0.57;;;22.50;92.60;;;;;;10466263;28;20045;-86
2022/08/13 07:33:10;;;;;;;0.77;0.50;;;22.70;92.10;;;;;;10424422;28;20125;-86
2022/08/13 07:38:15;;;;;;;2.20;0.50;;;22.80;92.50;;;;;;10454020;28;20376;-87
2022/08/13 07:43:19;;;;;;;7.45;0.40;;;23.10;91.70;;;;;;10442962;28;20055;-86
2022/08/13 07:48:21;;;;;;;4.30;0.45;;;23.30;91.00;;;;;;10458897;28;20044;-87
2022/08/13 07:53:39;;;;;;;1.33;0.30;;;23.30;91.10;;;;;;10447393;28;20048;-88
2022/08/13 07:59:00;;;;;;;0.60;0.30;;;23.50;91.10;;;;;;10458153;28;20055;-87
2022/08/13 08:04:06;;;;;;;0.40;0.30;;;23.80;91.20;;;;;;10428422;28;20694;-87
2022/08/13 08:09:08;;;;;;;1.35;0.35;;;23.90;90.40;;;;;;10450878;28;20041;-87
2022/08/13 08:14:10;;;;;;;2.55;0.63;;;24.30;89.50;;;;;;10459235;28;20040;-87
2022/08/13 08:19:16;;;;;;;0.63;0.32;;;24.40;88.20;;;;;;10453539;28;20039;-87
2022/08/13 08:24:38;;;;;;;1.63;0.30;;;24.50;87.40;;;;;;10448612;28;20098;-86
2022/08/13 08:29:46;;;;;;;0.40;0.30;;;24.80;86.10;;;;;;10456562;28;20041;-87
2022/08/13 08:35:08;;;;;;;1.08;0.30;;;25.10;85.00;;;;;;10454350;28;20048;-87
2022/08/13 08:45:53;;;;;;;1.67;0.32;;;25.50;83.50;;;;;;10466587;28;20056;-86
2022/08/13 08:51:18;;;;;;;0.30;0.30;;;25.60;84.60;;;;;;10443095;28;20052;-87
2022/08/13 08:56:22;;;;;;;0.60;0.20;;;26.00;81.40;;;;;;10453873;28;20074;-87
2022/08/13 09:01:27;;;;;;;0.80;0.30;;;26.20;81.90;;;;;;10456720;28;20040;-88
2022/08/13 09:06:29;;;;;;;1.83;0.85;;;26.10;81.80;;;;;;10461351;28;20522;-87
2022/08/13 09:11:55;;;;;;;2.63;0.38;;;26.50;88.20;;;;;;10439541;28;20063;-87
2022/08/13 09:16:59;;;;;;;1.27;0.30;;;26.50;86.60;;;;;;10439609;28;20102;-87
2022/08/13 09:22:01;;;;;;;6.95;0.40;;;26.60;86.40;;;;;;10460053;28;20059;-88
2022/08/13 09:27:04;;;;;;;2.78;0.32;;;27.00;86.80;;;;;;10452170;28;20479;-88
2022/08/13 09:32:06;;;;;;;1.23;0.30;;;26.90;84.90;;;;;;10455223;28;20052;-88
2022/08/13 09:37:09;;;;;;;0.60;0.40;;;27.20;84.80;;;;;;10435872;28;20056;-88
2022/08/13 09:42:19;;;;;;;0.43;0.32;;;27.20;83.70;;;;;;10452594;28;20049;-88
2022/08/13 09:47:26;;;;;;;5.57;0.50;;;27.40;81.90;;;;;;10449941;28;20064;-88
2022/08/13 09:52:49;;;;;;;0.60;0.30;;;27.50;81.80;;;;;;10456229;28;20079;-87
2022/08/13 09:57:53;;;;;;;1.75;0.30;;;27.70;80.00;;;;;;10451328;28;20410;-87
2022/08/13 10:03:03;;;;;;;0.60;0.25;;;27.80;80.40;;;;;;10454920;28;20491;-87
2022/08/13 10:08:12;;;;;;;0.55;0.38;;;28.00;79.00;;;;;;10441595;28;20487;-87
2022/08/13 10:13:15;;;;;;;0.90;0.40;;;28.10;80.10;;;;;;10454307;28;20097;-87
2022/08/13 10:18:25;;;;;;;3.38;0.30;;;28.30;78.60;;;;;;10425624;28;20136;-87
2022/08/13 10:23:26;;;;;;;;;;;28.50;78.50;;;;;;10453573;28;20048;-87
2022/08/13 10:28:36;;;;;;;0.30;0.30;;;28.70;76.90;;;;;;10446392;28;19959;-87
2022/08/13 10:33:38;;;;;;;1.00;0.40;;;28.80;76.50;;;;;;10449239;28;20426;-88
2022/08/13 10:38:48;;;;;;;0.68;0.40;;;28.80;76.40;;;;;;10441383;28;20055;-87
2022/08/13 10:43:59;;;;;;;0.65;0.40;;;29.30;75.70;;;;;;10458246;28;20083;-88
2022/08/13 10:49:01;;;;;;;2.42;0.40;;;29.90;74.50;;;;;;10436655;28;20040;-88
2022/08/13 10:54:07;;;;;;;1.65;0.70;;;30.40;72.70;;;;;;10460320;28;20052;-88
2022/08/13 10:59:22;;;;;;;1.70;0.30;;;30.70;73.20;;;;;;10456350;28;20841;-87
2022/08/13 11:04:25;;;;;;;0.90;0.30;;;30.80;70.40;;;;;;10448384;28;20479;-87
2022/08/13 11:09:31;;;;;;;3.53;0.50;;;30.40;69.30;;;;;;10447387;28;20043;-88
2022/08/13 11:14:41;;;;;;;0.47;0.32;;;30.50;68.70;;;;;;10443220;28;20044;-88
2022/08/13 11:19:45;;;;;;;0.60;0.30;;;30.20;68.20;;;;;;10433465;28;20140;-87
2022/08/13 11:24:50;;;;;;;1.58;0.30;;;30.50;69.30;;;;;;10432935;28;20579;-87
2022/08/13 11:29:53;;;;;;;1.13;0.40;;;31.00;66.90;;;;;;10446859;28;20090;-87
2022/08/13 11:34:57;;;;;;;6.72;0.30;;;31.30;70.00;;;;;;10448664;28;20056;-87
2022/08/13 11:39:59;;;;;;;2.92;0.30;;;31.60;68.40;;;;;;10462502;28;20406;-88
2022/08/13 11:45:20;;;;;;;0.60;0.30;;;33.00;67.20;;;;;;10431402;28;20040;-88
2022/08/13 11:50:22;;;;;;;0.40;0.40;;;32.60;65.40;;;;;;10451230;28;20040;-88
2022/08/13 11:55:37;;;;;;;0.40;0.30;;;32.60;64.80;;;;;;10426058;28;20043;-88
2022/08/13 12:00:59;;;;;;;0.68;0.30;;;32.60;63.60;;;;;;10431466;28;20060;-88
2022/08/13 12:06:10;;;;;;;0.73;0.30;;;32.20;65.20;;;;;;10453872;28;20119;-88
2022/08/13 12:11:15;;;;;;;0.40;0.30;;;32.00;64.50;;;;;;10432096;28;20550;-88
2022/08/13 12:16:19;;;;;;;;;;;32.20;62.50;;;;;;10444494;28;20045;-88
2022/08/13 12:21:21;;;;;;;1.00;0.50;;;32.30;62.30;;;;;;10449806;28;20199;-88
2022/08/13 12:26:23;;;;;;;0.40;0.30;;;32.40;64.80;;;;;;10430977;28;20048;-89
2022/08/13 12:31:31;;;;;;;0.50;0.28;;;32.30;64.40;;;;;;10441401;28;20052;-88
2022/08/13 12:36:34;;;;;;;0.90;0.50;;;32.00;60.70;;;;;;10423106;28;20106;-88
2022/08/13 12:41:36;;;;;;;0.45;0.30;;;32.10;61.20;;;;;;10466973;28;20052;-88
2022/08/13 12:46:48;;;;;;;0.68;0.30;;;32.30;61.30;;;;;;10451087;28;20739;-88
2022/08/13 12:51:51;;;;;;;1.73;0.30;;;32.30;61.00;;;;;;10446797;28;20049;-88
2022/08/13 12:56:56;;;;;;;0.20;0.20;;;32.40;61.80;;;;;;10432287;28;20052;-88
2022/08/13 13:01:59;;;;;;;0.60;0.30;;;32.40;61.20;;;;;;10449843;28;20131;-88
2022/08/13 13:07:02;;;;;;;0.52;0.25;;;32.20;60.50;;;;;;10457110;28;20037;-88
2022/08/13 13:12:08;;;;;;;1.02;0.30;;;32.40;61.20;;;;;;10438777;28;20059;-88
2022/08/13 13:17:10;;;;;;;2.42;0.30;;;32.50;60.50;;;;;;10461294;28;20117;-88
2022/08/13 13:22:31;;;;;;;0.70;0.40;;;32.60;60.60;;;;;;10465734;28;20053;-88
2022/08/13 13:27:39;;;;;;;0.32;0.30;;;32.60;60.60;;;;;;10449925;28;20053;-88
2022/08/13 13:32:47;;;;;;;1.02;0.35;;;32.50;59.90;;;;;;10467741;28;20062;-89
2022/08/13 13:37:51;;;;;;;0.50;0.30;;;32.80;61.80;;;;;;10437046;28;20059;-88
2022/08/13 13:43:08;;;;;;;1.27;0.73;;;32.70;60.60;;;;;;10458182;28;20544;-88
2022/08/13 13:48:28;;;;;;;2.03;0.30;;;32.40;59.50;;;;;;10461376;28;20127;-88
2022/08/13 13:53:33;;;;;;;0.68;0.40;;;32.80;60.60;;;;;;10457917;28;20052;-88
2022/08/13 13:58:55;;;;;;;0.45;0.32;;;32.60;60.10;;;;;;10443229;28;20053;-89
2022/08/13 14:04:00;;;;;;;3.63;0.30;;;33.00;58.60;;;;;;10456134;28;20059;-88
2022/08/13 14:09:05;;;;;;;0.38;0.32;;;33.40;57.90;;;;;;10456736;28;20380;-88
2022/08/13 14:14:07;;;;;;;0.32;0.30;;;33.70;57.40;;;;;;10428688;28;20057;-88
2022/08/13 14:19:11;;;;;;;0.35;0.30;;;33.60;57.10;;;;;;10448969;28;20501;-89
2022/08/13 14:24:37;;;;;;;0.43;0.30;;;33.90;58.00;;;;;;10437005;28;20053;-89
2022/08/13 14:29:38;;;;;;;0.30;0.30;;;34.20;58.20;;;;;;10454914;28;20079;-89
2022/08/13 14:34:42;;;;;;;1.17;0.35;;;33.30;60.00;;;;;;10430700;28;20060;-89
2022/08/13 14:39:55;;;;;;;3.65;0.40;;;33.10;60.90;;;;;;10460620;28;20521;-89
2022/08/13 14:50:21;;;;;;;0.22;0.22;;;34.30;60.80;;;;;;10458524;28;20044;-89
2022/08/13 14:55:27;;;;;;;0.47;0.30;;;34.40;60.10;;;;;;10439556;28;20077;-90
2022/08/13 15:00:30;;;;;;;0.70;0.38;;;34.60;60.00;;;;;;10445978;28;20112;-89
2022/08/13 15:05:35;;;;;;;0.43;0.30;;;34.60;61.80;;;;;;10441417;28;20063;-92
2022/08/13 15:10:55;;;;;;;0.30;0.25;;;35.00;61.40;;;;;;10449174;28;20049;-89
2022/08/13 15:16:08;;;;;;;2.67;0.35;;;35.00;64.10;;;;;;10454908;28;20581;-88
2022/08/13 15:21:16;;;;;;;1.42;0.57;;;35.30;63.60;;;;;;10447531;28;20495;-89
2022/08/13 15:26:41;;;;;;;0.80;0.30;;;35.40;62.80;;;;;;10456692;28;20047;-87
2022/08/13 15:31:46;;;;;;;1.77;0.20;;;35.80;62.80;;;;;;10424414;28;20319;-87
2022/08/13 15:36:50;;;;;;;1.25;0.40;;;35.70;61.10;;;;;;10439114;28;20410;-87
2022/08/13 15:42:06;;;;;;;0.45;0.28;;;35.60;61.70;;;;;;10448618;28;20065;-86
2022/08/13 15:47:16;;;;;;;2.47;0.28;;;34.90;60.20;;;;;;10443036;28;20372;-87
2022/08/13 15:52:22;;;;;;;1.45;0.20;;;35.00;61.10;;;;;;10440180;28;20046;-86
2022/08/13 15:57:26;;;;;;;1.98;0.40;;;35.10;60.70;;;;;;10458128;28;20044;-88
2022/08/13 16:02:34;;;;;;;0.50;0.30;;;34.90;60.10;;;;;;10425651;28;20064;-88
2022/08/13 16:07:59;;;;;;;1.08;0.30;;;35.00;59.20;;;;;;10454083;28;20057;-89
2022/08/13 16:13:08;;;;;;;1.58;0.38;;;35.10;58.50;;;;;;10466689;28;20033;-89
2022/08/13 16:18:13;;;;;;;0.50;0.20;;;35.30;59.30;;;;;;10430266;28;20057;-89
2022/08/13 16:23:17;;;;;;;1.10;0.20;;;35.40;58.30;;;;;;10427562;28;20045;-89
2022/08/13 16:28:22;;;;;;;0.20;0.20;;;35.20;57.10;;;;;;10430662;28;20455;-89
2022/08/13 16:33:24;;;;;;;0.65;0.30;;;35.30;57.60;;;;;;10428190;28;20041;-87
2022/08/13 16:38:46;;;;;;;2.85;0.30;;;35.00;60.70;;;;;;10448142;28;20426;-86
2022/08/13 16:43:48;;;;;;;0.50;0.35;;;34.80;61.10;;;;;;10445438;28;20547;-86
2022/08/13 16:49:03;;;;;;;0.30;0.30;;;34.60;57.50;;;;;;10439949;28;20049;-86
2022/08/13 16:54:06;;;;;;;2.70;0.30;;;34.40;59.20;;;;;;10455664;28;20082;-86
2022/08/13 16:59:30;;;;;;;0.52;0.20;;;34.20;58.60;;;;;;10439588;28;20048;-86
2022/08/13 17:10:14;;;;;;;0.50;0.50;;;33.90;59.00;;;;;;10443848;28;20711;-86
2022/08/13 17:15:20;;;;;;;;;;;33.90;58.40;;;;;;10439552;28;20040;-86
2022/08/13 17:20:27;;;;;;;1.15;0.35;;;33.80;59.80;;;;;;10439792;28;19947;-86
2022/08/13 17:25:32;;;;;;;1.58;0.28;;;34.10;60.20;;;;;;10453315;28;20090;-86
2022/08/13 17:30:34;;;;;;;4.40;0.40;;;33.40;59.40;;;;;;10449594;28;20504;-88
2022/08/13 17:35:36;;;;;;;0.88;0.40;;;33.20;58.80;;;;;;10446524;28;20058;-88
2022/08/13 17:40:44;;;;;;;0.40;0.30;;;33.20;59.80;;;;;;10447209;28;20147;-88
2022/08/13 17:45:52;;;;;;;0.75;0.30;;;33.00;59.70;;;;;;10454982;28;20508;-88
2022/08/13 17:51:01;;;;;;;0.50;0.47;;;33.00;59.50;;;;;;10433210;28;20387;-88
2022/08/13 17:56:11;;;;;;;1.85;0.50;;;32.70;59.10;;;;;;10455114;28;20129;-88
2022/08/13 18:01:16;;;;;;;2.30;0.40;;;32.30;59.70;;;;;;10460014;28;20060;-88
2022/08/13 18:06:32;;;;;;;9.13;0.60;;;31.90;60.80;;;;;;10456127;28;20056;-85
2022/08/13 18:11:36;;;;;;;5.13;0.40;;;31.50;62.40;;;;;;10445815;28;20057;-87
2022/08/13 18:16:44;;;;;;;1.00;0.50;;;30.80;63.10;;;;;;10447464;28;20044;-87
2022/08/13 18:22:06;;;;;;;2.40;0.50;;;30.50;62.10;;;;;;10435212;28;20061;-87
2022/08/13 18:27:08;;;;;;;2.67;0.60;;;30.00;62.60;;;;;;10462880;28;20056;-86
2022/08/13 18:32:19;;;;;;;1.25;0.60;;;29.60;64.30;;;;;;10446387;28;20052;-89
2022/08/13 18:37:28;;;;;;;2.40;0.40;;;29.40;63.90;;;;;;10432115;28;20028;-89
2022/08/13 18:42:45;;;;;;;1.67;0.60;;;29.10;64.10;;;;;;10448250;28;20135;-89
2022/08/13 18:47:53;;;;;;;0.65;0.40;;;28.90;64.60;;;;;;10423319;28;20060;-89
2022/08/13 18:52:57;;;;;;;3.08;0.40;;;28.40;64.90;;;;;;10441796;28;20053;-89
2022/08/13 18:58:19;;;;;;;5.47;0.55;;;28.30;67.40;;;;;;10467045;28;20491;-88
2022/08/13 19:03:23;;;;;;;1.17;0.63;;;28.40;67.70;;;;;;10468472;28;20044;-87
2022/08/13 19:08:32;;;;;;;2.10;0.70;;;27.80;68.10;;;;;;10461082;28;20059;-88
2022/08/13 19:13:34;;;;;;;3.45;0.98;;;27.70;68.30;;;;;;10446225;28;20040;-88
2022/08/13 19:18:39;;;;;;;3.00;0.68;;;27.80;68.90;;;;;;10449997;28;20052;-87
2022/08/13 19:23:41;;;;;;;1.65;0.70;;;27.30;69.20;;;;;;10448509;28;20044;-87
2022/08/13 19:28:43;;;;;;;0.60;0.57;;;27.30;70.20;;;;;;10426318;28;20039;-87
2022/08/13 19:33:59;;;;;;;0.93;0.50;;;27.10;70.60;;;;;;10439989;28;20120;-88
2022/08/13 19:39:05;;;;;;;0.97;0.70;;;27.10;70.80;;;;;;10438034;28;20060;-88
2022/08/13 19:44:27;;;;;;;1.65;0.70;;;27.10;71.30;;;;;;10448072;28;20052;-88
2022/08/13 19:49:37;;;;;;;2.58;0.60;;;27.00;71.90;;;;;;10446030;28;20051;-87
2022/08/13 19:54:56;;;;;;;0.70;0.70;;;26.70;72.10;;;;;;10461672;28;20135;-88
2022/08/13 20:00:11;;;;;;;3.27;0.77;;;26.50;72.00;;;;;;10464190;28;20053;-88
2022/08/13 20:05:18;;;;;;;4.67;0.90;;;26.40;72.50;;;;;;10430475;28;20055;-88
2022/08/13 20:10:25;;;;;;;1.42;1.10;;;26.30;73.00;;;;;;10439122;28;20036;-88
2022/08/13 20:15:27;;;;;;;2.85;1.08;;;26.10;73.50;;;;;;10444578;28;20049;-87
2022/08/13 20:20:38;;;;;;;0.95;0.88;;;26.10;74.00;;;;;;10441869;28;20037;-88
2022/08/13 20:25:50;;;;;;;1.10;0.82;;;25.90;74.50;;;;;;10447064;28;20051;-88
2022/08/13 20:31:07;;;;;;;2.22;0.98;;;25.70;75.20;;;;;;10465594;28;20045;-88
2022/08/13 20:36:13;;;;;;;0.93;0.80;;;25.60;75.90;;;;;;10444014;28;20059;-87
2022/08/13 20:41:16;;;;;;;2.97;1.15;;;25.50;76.70;;;;;;10442027;28;20044;-87
2022/08/13 20:46:18;;;;;;;1.42;0.95;;;25.40;77.10;;;;;;10449263;28;20132;-87
2022/08/13 20:51:26;;;;;;;1.77;1.25;;;25.60;78.10;;;;;;10456979;28;20053;-87
2022/08/13 20:56:30;;;;;;;1.45;0.93;;;25.20;78.70;;;;;;10447475;28;20059;-87
2022/08/13 21:01:52;;;;;;;2.95;1.10;;;25.10;79.20;;;;;;10455705;28;20056;-87
2022/08/13 21:06:55;;;;;;;3.00;1.30;;;25.00;80.10;;;;;;10467085;28;20087;-87
2022/08/13 21:11:59;;;;;;;1.65;1.25;;;25.00;80.70;;;;;;10442308;28;20067;-87
2022/08/13 21:17:02;;;;;;;3.05;1.70;;;24.90;81.50;;;;;;10434479;28;20055;-87
2022/08/13 21:22:04;;;;;;;2.58;1.70;;;24.80;82.10;;;;;;10431838;28;20494;-87
2022/08/13 21:27:07;;;;;;;2.75;1.90;;;24.70;82.70;;;;;;10472190;28;20048;-87
2022/08/13 21:32:29;;;;;;;2.80;2.03;;;24.70;83.50;;;;;;10462802;28;20048;-86
2022/08/13 21:37:31;;;;;;;4.57;2.83;;;24.60;85.30;;;;;;10446269;28;20052;-87
2022/08/13 21:42:35;;;;;;;3.92;2.30;;;24.40;85.20;;;;;;10448478;28;20048;-88
2022/08/13 21:47:45;;;;;;;4.45;1.73;;;24.00;85.90;;;;;;10434078;28;20060;-88
2022/08/13 21:52:49;;;;;;;5.82;1.88;;;24.30;86.50;;;;;;10462897;28;20135;-87
2022/08/13 21:57:56;;;;;;;2.38;1.65;;;24.20;87.10;;;;;;10444854;28;20098;-87
2022/08/13 22:03:04;;;;;;;3.92;2.00;;;24.10;88.00;;;;;;10431030;28;20402;-87
2022/08/13 22:08:12;;;;;;;4.22;2.03;;;24.00;89.40;;;;;;10456890;28;20045;-87
2022/08/13 22:13:21;;;;;;;4.55;1.63;;;24.00;90.10;;;;;;10433796;28;20040;-87
2022/08/13 22:18:23;;;;;;;2.13;1.83;;;23.90;90.40;;;;;;10454182;28;20053;-88
2022/08/13 22:23:29;;;;;;;2.20;1.75;;;24.00;90.90;;;;;;10451209;28;20564;-88
2022/08/13 22:33:53;;;;;;;5.72;2.00;;;23.70;91.80;;;;;;10451147;28;20091;-88
2022/08/13 22:39:08;;;;;;;4.55;1.55;;;23.50;92.30;;;;;;10448571;28;20098;-88
2022/08/13 22:44:11;;;;;;;3.72;2.28;;;23.70;93.00;;;;;;10435451;28;20057;-88
2022/08/13 22:49:14;;;;;;;4.22;2.08;;;23.30;93.50;;;;;;10445568;28;20384;-88
2022/08/13 22:54:15;;;;;;;3.70;1.65;;;23.10;94.20;;;;;;10460946;28;20066;-88
2022/08/13 22:59:19;;;;;;;2.25;1.90;;;23.10;94.90;;;;;;10430643;28;20044;-88
2022/08/13 23:04:22;;;;;;;3.15;2.70;;;22.90;95.50;;;;;;10427818;28;20079;-88
2022/08/13 23:09:27;;;;;;;3.00;2.17;;;23.30;96.40;;;;;;10448436;28;20048;-87
2022/08/13 23:14:31;;;;;;;6.30;2.25;;;22.80;96.90;;;;;;10453176;28;20048;-88
2022/08/13 23:19:33;;;;;;;2.60;2.13;;;23.30;97.70;;;;;;10441119;28;20045;-88
2022/08/13 23:24:35;;;;;;;3.97;2.35;;;22.60;98.10;;;;;;10425197;28;20052;-88
2022/08/13 23:29:37;;;;;;;4.32;2.35;;;22.50;98.70;;;;;;10449256;28;20059;-88
2022/08/13 23:34:39;;;;;;;3.88;2.53;;;22.50;99.90;;;;;;10450935;28;20056;-88
2022/08/13 23:39:42;;;;;;;5.85;2.40;;;22.30;99.90;;;;;;10435679;28;20110;-87
2022/08/13 23:44:50;;;;;;;3.25;2.08;;;22.20;99.90;;;;;;10451236;28;20468;-88
2022/08/13 23:49:52;;;;;;;3.72;2.78;;;22.10;99.90;;;;;;10450265;28;20047;-88
2022/08/13 23:54:54;;;;;;;2.65;2.10;;;23.20;99.90;;;;;;10445202;28;20506;-88
2022/08/13 23:59:56;;;;;;;5.38;3.20;;;21.70;99.90;;;;;;10449937;28;20044;-87
